Time;durP1;ratioP1;P1;durP2;ratioP2;P2;SDS_P1;SDS_P2;PMS_P1;PMS_P2;Temp;Humidity;BMP_temperature;BMP_pressure;BME280_temperature;BME280_humidity;BME280_pressure;Samples;Min_cycle;Max_cycle;Signal;HPM_P1;HPM_P2
2021/08/26 00:06:52;;;;;;;3.30;1.65;;;20.50;67.90;;;;;;5041758;28;20121;-59
2021/08/26 00:09:20;;;;;;;3.50;1.67;;;20.50;68.00;;;;;;5031915;28;20029;-60
2021/08/26 00:11:49;;;;;;;3.25;1.70;;;20.50;68.10;;;;;;5031395;28;20021;-59
2021/08/26 00:14:19;;;;;;;3.00;1.60;;;20.50;68.10;;;;;;5032385;28;20053;-59
2021/08/26 00:16:45;;;;;;;3.47;1.90;;;20.50;67.90;;;;;;5031341;28;20151;-59
2021/08/26 00:19:14;;;;;;;3.53;1.85;;;20.50;67.90;;;;;;5034537;28;20108;-60
2021/08/26 00:21:44;;;;;;;2.95;1.70;;;20.40;68.00;;;;;;5051117;28;20057;-60
2021/08/26 00:24:24;;;;;;;3.63;2.00;;;20.40;68.10;;;;;;5045213;28;20071;-59
2021/08/26 00:27:01;;;;;;;3.22;1.70;;;20.40;68.30;;;;;;5049430;28;20024;-58
2021/08/26 00:29:30;;;;;;;3.35;1.63;;;20.30;68.20;;;;;;5051087;28;20548;-59
2021/08/26 00:31:56;;;;;;;3.45;1.85;;;20.30;68.30;;;;;;5050962;28;20025;-59
2021/08/26 00:34:27;;;;;;;3.38;1.77;;;20.30;68.40;;;;;;5043045;28;20419;-59
2021/08/26 00:36:58;;;;;;;3.55;1.85;;;20.30;68.40;;;;;;5042921;28;20786;-59
2021/08/26 00:39:25;;;;;;;4.75;1.90;;;20.30;68.40;;;;;;5051037;28;20091;-59
2021/08/26 00:41:55;;;;;;;3.13;1.80;;;20.30;68.50;;;;;;5051146;28;20055;-60
2021/08/26 00:44:32;;;;;;;3.40;1.83;;;20.30;68.50;;;;;;5050917;28;20028;-59
2021/08/26 00:49:54;;;;;;;2.95;1.50;;;20.20;68.60;;;;;;5050440;28;20036;-59
2021/08/26 00:52:24;;;;;;;3.50;1.80;;;20.20;68.70;;;;;;5050765;28;20025;-59
2021/08/26 00:54:50;;;;;;;3.17;1.77;;;20.20;68.60;;;;;;5050649;28;20036;-59
2021/08/26 00:57:22;;;;;;;2.92;1.60;;;20.20;68.70;;;;;;5049390;28;20036;-60
2021/08/26 00:59:49;;;;;;;2.70;1.60;;;20.20;68.70;;;;;;5051154;28;20024;-60
2021/08/26 01:02:43;;;;;;;2.88;1.65;;;20.20;68.70;;;;;;5054407;28;20108;-60
2021/08/26 01:05:20;;;;;;;3.20;1.60;;;20.10;69.00;;;;;;5054512;28;20058;-59
2021/08/26 01:08:09;;;;;;;3.33;1.80;;;20.20;69.10;;;;;;5052922;28;20032;-59
2021/08/26 01:10:39;;;;;;;3.03;1.67;;;20.10;69.00;;;;;;5053715;28;20036;-60
2021/08/26 01:13:09;;;;;;;3.90;1.60;;;20.20;69.00;;;;;;5054057;28;20033;-59
2021/08/26 01:15:38;;;;;;;3.75;2.03;;;20.10;68.80;;;;;;5054345;28;20017;-59
2021/08/26 01:18:14;;;;;;;3.92;2.20;;;20.10;69.00;;;;;;5054296;28;20017;-58
2021/08/26 01:20:48;;;;;;;3.33;1.70;;;20.10;69.20;;;;;;5053911;28;20102;-58
2021/08/26 01:23:24;;;;;;;2.72;1.63;;;20.10;69.30;;;;;;5053930;28;20120;-59
2021/08/26 01:26:08;;;;;;;4.07;1.70;;;20.10;69.10;;;;;;5054091;28;20017;-58
2021/08/26 01:28:57;;;;;;;2.95;1.60;;;20.10;69.00;;;;;;5054121;28;20045;-59
2021/08/26 01:31:24;;;;;;;2.65;1.50;;;20.10;69.00;;;;;;5053652;28;20029;-60
2021/08/26 01:34:01;;;;;;;2.42;1.50;;;20.10;68.90;;;;;;5050727;28;20033;-59
2021/08/26 01:36:57;;;;;;;2.85;1.60;;;20.10;68.90;;;;;;5053655;28;20025;-60
2021/08/26 01:39:32;;;;;;;3.58;1.50;;;20.10;68.80;;;;;;5053716;28;20387;-59
2021/08/26 01:42:11;;;;;;;3.25;1.48;;;20.10;68.50;;;;;;5053619;28;20025;-59
2021/08/26 01:44:40;;;;;;;2.47;1.42;;;20.10;68.60;;;;;;5053538;28;20035;-59
2021/08/26 01:47:17;;;;;;;2.58;1.50;;;20.10;68.60;;;;;;5052721;28;20139;-59
2021/08/26 01:49:43;;;;;;;2.78;1.55;;;20.10;68.50;;;;;;5050675;28;20021;-59
2021/08/26 01:52:22;;;;;;;2.90;1.50;;;20.10;68.40;;;;;;5049921;28;20025;-59
2021/08/26 01:55:00;;;;;;;2.63;1.48;;;20.10;68.40;;;;;;5053456;28;20053;-59
2021/08/26 01:57:34;;;;;;;2.95;1.60;;;20.00;68.30;;;;;;5053343;28;20048;-59
2021/08/26 02:00:04;;;;;;;3.15;1.60;;;20.00;68.40;;;;;;5053399;28;20021;-59
2021/08/26 02:02:33;;;;;;;3.33;1.70;;;19.90;68.50;;;;;;5053468;28;20083;-59
2021/08/26 02:05:02;;;;;;;3.50;1.80;;;19.90;68.60;;;;;;5053240;28;20025;-59
2021/08/26 02:07:28;;;;;;;3.30;1.70;;;19.90;68.60;;;;;;5049647;28;20021;-59
2021/08/26 02:09:55;;;;;;;3.10;1.70;;;19.80;68.60;;;;;;5052976;28;20477;-59
2021/08/26 02:12:24;;;;;;;3.33;1.67;;;19.80;68.80;;;;;;5053194;28;20017;-59
2021/08/26 02:14:51;;;;;;;3.58;1.63;;;19.80;68.80;;;;;;5053052;28;20025;-59
2021/08/26 02:17:20;;;;;;;2.97;1.58;;;19.70;68.80;;;;;;5052966;28;20025;-58
2021/08/26 02:19:46;;;;;;;2.80;1.55;;;19.70;69.00;;;;;;5052798;28;20388;-59
2021/08/26 02:22:12;;;;;;;3.80;1.80;;;19.70;69.00;;;;;;5052970;28;20052;-59
2021/08/26 02:24:39;;;;;;;3.65;1.92;;;19.70;68.80;;;;;;5052929;28;20021;-59
2021/08/26 02:27:05;;;;;;;3.63;2.00;;;19.60;68.70;;;;;;5052886;28;20031;-60
2021/08/26 02:29:34;;;;;;;3.50;1.98;;;19.50;68.90;;;;;;5051313;28;20358;-60
2021/08/26 02:32:05;;;;;;;3.47;1.85;;;19.40;69.10;;;;;;5051363;28;20037;-58
2021/08/26 02:34:34;;;;;;;3.70;2.10;;;19.40;69.30;;;;;;5052594;28;20036;-59
2021/08/26 02:37:07;;;;;;;3.80;1.92;;;19.40;69.40;;;;;;5052767;28;20028;-59
2021/08/26 02:39:40;;;;;;;3.67;2.05;;;19.40;69.50;;;;;;5052856;28;20488;-59
2021/08/26 02:42:16;;;;;;;3.60;1.85;;;19.40;69.40;;;;;;5052426;28;20029;-58
2021/08/26 02:44:55;;;;;;;3.55;2.08;;;19.40;69.50;;;;;;5052249;28;20025;-58
2021/08/26 02:47:31;;;;;;;3.45;2.00;;;19.30;69.50;;;;;;5052371;28;20111;-58
2021/08/26 02:49:58;;;;;;;4.15;2.33;;;19.20;69.90;;;;;;5052190;28;20071;-59
2021/08/26 02:52:28;;;;;;;4.10;2.20;;;19.20;69.70;;;;;;5052259;28;20021;-59
2021/08/26 07:16:46;;;;;;;3.65;2.10;;;22.90;64.60;;;;;;5877127;23;20321;31
2021/08/26 07:19:12;;;;;;;3.70;2.30;;;23.00;64.40;;;;;;4837032;29;20385;-60
2021/08/26 07:21:39;;;;;;;3.63;2.13;;;23.10;64.20;;;;;;4841154;29;20034;-60
2021/08/26 07:24:04;;;;;;;4.40;2.50;;;23.20;64.10;;;;;;4841161;29;20033;-60
2021/08/26 07:26:30;;;;;;;4.53;2.67;;;23.30;64.00;;;;;;4841382;29;20117;-59
2021/08/26 07:28:56;;;;;;;5.82;2.75;;;23.50;63.80;;;;;;4841145;29;20086;-60
2021/08/26 07:31:22;;;;;;;4.25;2.40;;;23.60;63.60;;;;;;4841151;29;20034;-60
2021/08/26 07:33:48;;;;;;;4.00;2.30;;;23.60;63.40;;;;;;4840848;29;20116;-59
2021/08/26 07:36:14;;;;;;;4.25;2.55;;;23.70;63.20;;;;;;4841077;29;20021;-60
2021/08/26 07:38:40;;;;;;;4.00;2.53;;;23.70;63.10;;;;;;4841375;29;20095;-61
2021/08/26 07:41:05;;;;;;;4.53;2.80;;;23.70;63.00;;;;;;4841113;29;20859;-61
2021/08/26 07:43:32;;;;;;;4.70;2.75;;;23.80;63.00;;;;;;4841168;29;20026;-60
2021/08/26 07:45:58;;;;;;;4.97;2.67;;;23.80;63.00;;;;;;4840866;29;20088;-60
2021/08/26 07:48:24;;;;;;;3.97;2.55;;;23.90;63.00;;;;;;4840902;29;20034;-59
2021/08/26 07:50:53;;;;;;;4.00;2.53;;;24.00;63.00;;;;;;4824557;29;20030;-60
2021/08/26 07:53:19;;;;;;;5.18;2.80;;;24.10;62.90;;;;;;4840877;29;20033;-59
2021/08/26 07:55:45;;;;;;;4.20;2.78;;;24.20;62.70;;;;;;4840669;29;20041;-59
2021/08/26 07:58:10;;;;;;;4.53;3.10;;;24.30;62.60;;;;;;4840834;29;20038;-59
2021/08/26 08:00:36;;;;;;;4.72;3.13;;;24.50;62.40;;;;;;4840423;29;20071;-60
2021/08/26 08:03:03;;;;;;;4.80;3.05;;;24.70;62.20;;;;;;4840719;29;20057;-60
2021/08/26 08:05:28;;;;;;;4.88;3.33;;;24.70;61.70;;;;;;4840437;29;20037;-60
2021/08/26 08:07:55;;;;;;;4.43;2.85;;;24.80;61.50;;;;;;4840579;29;20034;-59
2021/08/26 08:10:23;;;;;;;4.40;2.67;;;24.90;61.30;;;;;;4830319;29;20030;-59
2021/08/26 08:12:49;;;;;;;4.70;3.00;;;25.00;61.20;;;;;;4857635;29;20030;-60
2021/08/26 08:15:15;;;;;;;5.00;3.28;;;25.00;61.00;;;;;;4844144;29;20490;-59
2021/08/26 08:17:41;;;;;;;4.63;3.13;;;25.10;61.00;;;;;;4855268;29;20070;-60
2021/08/26 08:20:26;;;;;;;4.88;3.30;;;25.20;60.80;;;;;;4844431;29;20049;-59
2021/08/26 08:22:51;;;;;;;5.43;3.05;;;25.30;60.70;;;;;;4828702;29;20070;-58
2021/08/26 08:25:17;;;;;;;4.38;2.92;;;25.50;60.70;;;;;;4843108;29;20069;-59
2021/08/26 08:27:43;;;;;;;5.10;3.55;;;25.70;60.60;;;;;;4842646;29;20443;-60
2021/08/26 08:30:09;;;;;;;5.93;3.45;;;25.90;60.30;;;;;;4846721;29;20388;-60
2021/08/26 08:32:35;;;;;;;6.82;3.53;;;26.10;60.10;;;;;;4843015;29;20037;-59
2021/08/26 08:35:02;;;;;;;5.18;3.10;;;26.10;59.80;;;;;;4843474;29;20034;-59
2021/08/26 08:37:28;;;;;;;5.35;3.28;;;26.30;59.60;;;;;;4843951;29;20090;-59
2021/08/26 08:39:53;;;;;;;5.03;3.28;;;26.40;59.40;;;;;;4843654;29;20125;-61
2021/08/26 08:42:21;;;;;;;5.40;3.25;;;26.60;59.20;;;;;;4843137;29;20037;-61
2021/08/26 08:44:46;;;;;;;5.45;3.10;;;26.80;59.10;;;;;;4843729;29;20022;-60
2021/08/26 08:47:13;;;;;;;5.00;3.25;;;27.00;58.90;;;;;;4843909;29;20061;-60
2021/08/26 08:49:42;;;;;;;5.35;2.97;;;27.20;58.70;;;;;;4843418;29;20466;-61
2021/08/26 08:52:09;;;;;;;4.68;3.13;;;27.30;58.50;;;;;;4843970;29;20086;-61
2021/08/26 08:54:34;;;;;;;5.30;3.05;;;27.60;58.40;;;;;;4842506;29;20041;-60
2021/08/26 08:57:00;;;;;;;5.00;3.03;;;27.90;58.10;;;;;;4825519;29;20039;-60
2021/08/26 08:59:33;;;;;;;4.40;2.90;;;28.20;57.80;;;;;;4824917;29;20034;-60
2021/08/26 09:01:59;;;;;;;4.55;3.00;;;28.50;57.20;;;;;;4836725;29;20058;-60
2021/08/26 09:04:25;;;;;;;4.28;2.60;;;28.60;56.80;;;;;;4838096;29;20068;-62
2021/08/26 09:06:51;;;;;;;4.65;2.95;;;28.80;56.60;;;;;;4843439;29;20773;-60
2021/08/26 09:09:20;;;;;;;3.85;2.35;;;28.90;56.20;;;;;;4843442;29;20034;-61
2021/08/26 09:11:54;;;;;;;4.38;2.75;;;29.10;56.20;;;;;;4843738;29;20052;-61
2021/08/26 09:14:24;;;;;;;4.70;3.30;;;29.20;55.70;;;;;;4855786;29;20029;-60
2021/08/26 09:16:51;;;;;;;5.10;3.10;;;29.40;55.50;;;;;;4843033;29;20405;-59
2021/08/26 09:19:33;;;;;;;3.63;2.20;;;29.50;55.30;;;;;;4843722;29;20109;-61
2021/08/26 09:22:06;;;;;;;4.28;2.70;;;29.50;55.20;;;;;;4841671;29;20034;-61
2021/08/26 09:24:50;;;;;;;3.90;2.53;;;29.70;54.80;;;;;;4842516;29;20041;-61
2021/08/26 09:27:42;;;;;;;4.40;2.88;;;29.80;54.40;;;;;;4842291;29;20068;-60
2021/08/26 09:30:13;;;;;;;4.63;3.08;;;29.90;54.10;;;;;;4842159;29;20113;-61
2021/08/26 09:32:44;;;;;;;4.93;2.65;;;29.80;54.50;;;;;;4842824;29;20034;-61
2021/08/26 09:35:11;;;;;;;4.60;3.20;;;29.70;53.90;;;;;;4842935;29;20033;-61
2021/08/26 09:37:48;;;;;;;4.57;3.13;;;29.50;53.90;;;;;;4842802;29;20034;-61
2021/08/26 09:40:16;;;;;;;4.40;2.78;;;29.30;53.70;;;;;;4842968;29;20022;-61
2021/08/26 09:42:42;;;;;;;4.53;2.92;;;29.30;54.10;;;;;;4842818;29;20030;-61
2021/08/26 09:45:17;;;;;;;4.80;2.85;;;29.30;54.10;;;;;;4842634;29;20049;-61
2021/08/26 09:48:11;;;;;;;4.40;2.70;;;29.20;54.00;;;;;;4842779;29;20446;-60
2021/08/26 09:50:41;;;;;;;4.50;2.50;;;29.10;53.50;;;;;;4841041;29;20038;-61
2021/08/26 09:53:08;;;;;;;4.20;2.80;;;29.00;54.00;;;;;;4842494;29;20034;-61
2021/08/26 09:55:48;;;;;;;4.20;2.80;;;28.90;54.00;;;;;;4842442;29;20041;-60
2021/08/26 09:58:22;;;;;;;4.68;2.80;;;28.70;53.80;;;;;;4837028;29;20133;-61
2021/08/26 10:00:49;;;;;;;4.60;2.88;;;28.40;54.00;;;;;;4842143;29;20042;-62
2021/08/26 10:03:16;;;;;;;5.38;2.88;;;28.20;54.20;;;;;;4841796;29;20037;-61
2021/08/26 10:05:45;;;;;;;4.80;3.10;;;28.00;54.30;;;;;;4842309;29;20026;-60
2021/08/26 10:08:12;;;;;;;4.30;2.80;;;27.70;54.40;;;;;;4824231;29;20044;-60
2021/08/26 10:10:40;;;;;;;4.57;3.03;;;27.50;54.80;;;;;;4824531;29;20079;-60
2021/08/26 10:13:06;;;;;;;5.00;3.13;;;27.30;55.00;;;;;;4842243;29;20034;-61
2021/08/26 10:15:33;;;;;;;4.60;3.03;;;27.10;55.20;;;;;;4842212;29;20061;-61
2021/08/26 10:18:00;;;;;;;4.53;2.88;;;27.00;55.30;;;;;;4841623;29;20141;-60
2021/08/26 10:20:26;;;;;;;5.22;3.03;;;26.80;55.40;;;;;;4841858;29;20355;-60
2021/08/26 10:22:53;;;;;;;4.53;3.10;;;26.60;55.60;;;;;;4842050;29;20037;-61
2021/08/26 10:25:19;;;;;;;6.28;3.25;;;26.40;55.90;;;;;;4841842;29;20022;-60
2021/08/26 10:27:47;;;;;;;4.53;2.97;;;26.20;56.10;;;;;;4841701;29;20121;-60
2021/08/26 10:30:29;;;;;;;4.65;3.15;;;26.10;56.40;;;;;;4851748;29;20438;-60
2021/08/26 10:33:16;;;;;;;4.57;3.00;;;26.00;56.70;;;;;;4840753;29;20038;-60
2021/08/26 10:35:51;;;;;;;4.50;2.92;;;25.90;57.00;;;;;;4844802;29;20061;-60
2021/08/26 10:38:22;;;;;;;4.55;3.03;;;25.90;57.10;;;;;;4841595;29;20118;-61
2021/08/26 10:40:49;;;;;;;5.00;3.20;;;25.80;57.10;;;;;;4841108;29;20116;-59
2021/08/26 10:43:38;;;;;;;5.88;3.50;;;25.80;57.20;;;;;;4840980;29;20057;-60
2021/08/26 10:46:06;;;;;;;5.70;3.10;;;25.80;57.30;;;;;;4841608;29;20105;-60
2021/08/26 10:48:35;;;;;;;5.57;3.35;;;25.80;57.40;;;;;;4841605;29;20030;-60
2021/08/26 10:51:17;;;;;;;5.35;3.50;;;25.80;57.50;;;;;;4841189;29;20034;-60
2021/08/26 10:53:46;;;;;;;5.78;3.70;;;25.80;57.70;;;;;;4840646;29;20485;-61
2021/08/26 10:56:22;;;;;;;5.90;3.58;;;25.80;57.60;;;;;;4840006;29;20038;-60
2021/08/26 10:59:01;;;;;;;4.82;3.20;;;25.90;57.70;;;;;;4844271;29;20045;-59
2021/08/26 11:01:37;;;;;;;4.78;3.22;;;25.90;57.70;;;;;;4840805;29;20433;-61
2021/08/26 11:04:06;;;;;;;4.93;3.22;;;25.80;57.60;;;;;;4841544;29;20034;-62
2021/08/26 11:06:37;;;;;;;4.82;3.15;;;25.70;57.70;;;;;;4841026;29;20030;-60
2021/08/26 11:09:28;;;;;;;5.47;3.20;;;25.60;57.70;;;;;;4836219;29;20034;-61
2021/08/26 11:11:59;;;;;;;4.65;2.92;;;25.50;58.10;;;;;;4825085;29;20040;-60
2021/08/26 11:14:27;;;;;;;4.17;2.80;;;25.40;58.20;;;;;;4845175;29;20103;-62
2021/08/26 11:16:55;;;;;;;4.80;3.08;;;25.30;58.40;;;;;;4840646;29;20084;-62
2021/08/26 11:19:20;;;;;;;4.63;3.15;;;25.20;58.50;;;;;;4840695;29;20053;-61
2021/08/26 11:21:47;;;;;;;5.10;2.67;;;25.20;58.70;;;;;;4830756;29;20064;-61
2021/08/26 11:24:12;;;;;;;4.75;3.22;;;25.10;58.70;;;;;;4846630;29;20026;-61
2021/08/26 11:26:53;;;;;;;4.60;3.10;;;25.10;58.90;;;;;;4841133;29;20485;-62
2021/08/26 11:29:22;;;;;;;5.40;3.10;;;24.90;59.00;;;;;;4840830;29;20026;-59
2021/08/26 11:31:54;;;;;;;4.65;3.15;;;24.80;59.00;;;;;;4839977;29;20493;-59
2021/08/26 11:34:30;;;;;;;4.60;3.15;;;24.80;59.20;;;;;;4841112;29;20082;-60
2021/08/26 11:37:06;;;;;;;4.68;3.20;;;24.70;59.40;;;;;;4824566;29;20033;-60
2021/08/26 11:39:37;;;;;;;6.20;4.13;;;24.60;59.50;;;;;;4825293;29;20442;-61
2021/08/26 11:42:05;;;;;;;5.13;3.13;;;24.50;59.70;;;;;;4840577;29;20474;-61
2021/08/26 11:44:31;;;;;;;5.05;3.20;;;24.40;59.90;;;;;;4840171;29;20026;-60
2021/08/26 11:46:59;;;;;;;5.03;3.03;;;24.40;60.00;;;;;;4840447;29;20057;-61
2021/08/26 11:49:41;;;;;;;4.72;3.10;;;24.30;60.20;;;;;;4841042;29;20064;-59
2021/08/26 11:52:11;;;;;;;4.68;2.90;;;24.30;60.80;;;;;;4840319;29;20052;-59
2021/08/26 11:54:47;;;;;;;4.68;2.92;;;24.20;60.60;;;;;;4840363;29;20044;-60
2021/08/26 11:57:14;;;;;;;4.95;3.10;;;24.10;60.80;;;;;;4840409;29;20098;-60
2021/08/26 11:59:42;;;;;;;5.80;3.45;;;24.10;61.10;;;;;;4840056;29;20077;-61
2021/08/26 12:02:27;;;;;;;7.80;3.63;;;24.00;61.50;;;;;;4839613;29;20125;-60
2021/08/26 12:04:57;;;;;;;4.97;3.10;;;24.00;62.00;;;;;;4822580;29;20031;-62
2021/08/26 12:07:26;;;;;;;4.70;3.00;;;23.90;62.00;;;;;;4832712;29;20030;-59
2021/08/26 12:09:56;;;;;;;5.43;3.42;;;23.80;62.20;;;;;;4840298;29;20041;-61
2021/08/26 12:12:22;;;;;;;5.03;3.42;;;23.70;62.50;;;;;;4840310;29;20060;-59
2021/08/26 12:14:48;;;;;;;5.30;3.65;;;23.60;62.70;;;;;;4840394;29;20030;-60
2021/08/26 12:17:19;;;;;;;5.15;3.60;;;23.60;63.10;;;;;;4839598;29;20049;-60
2021/08/26 12:19:47;;;;;;;5.15;3.67;;;23.60;63.50;;;;;;4839478;29;20042;-60
2021/08/26 12:22:14;;;;;;;5.90;3.92;;;23.50;63.50;;;;;;4840759;29;20033;-60
2021/08/26 12:25:17;;;;;;;5.07;3.45;;;23.60;63.70;;;;;;4839511;29;20026;-60
2021/08/26 12:27:53;;;;;;;5.50;3.92;;;23.60;64.60;;;;;;4809156;29;20120;-60
2021/08/26 12:30:41;;;;;;;6.30;4.53;;;23.70;64.00;;;;;;4840198;29;20374;-61
2021/08/26 12:33:10;;;;;;;6.60;4.45;;;23.70;64.40;;;;;;4840319;29;20045;-61
2021/08/26 12:35:56;;;;;;;6.15;4.13;;;23.80;64.00;;;;;;4840636;29;20030;-60
2021/08/26 12:38:39;;;;;;;5.60;3.67;;;24.00;64.50;;;;;;4839831;29;20478;-61
2021/08/26 12:41:07;;;;;;;6.05;3.92;;;24.20;64.10;;;;;;4839405;29;20053;-59
2021/08/26 12:43:48;;;;;;;5.30;3.72;;;24.40;63.80;;;;;;4840175;29;20085;-60
2021/08/26 12:46:18;;;;;;;5.10;3.60;;;24.50;63.80;;;;;;4838659;29;20469;-60
2021/08/26 12:48:46;;;;;;;5.78;3.60;;;24.60;63.40;;;;;;4839826;29;20109;-61
2021/08/26 12:51:16;;;;;;;5.68;3.80;;;24.70;63.30;;;;;;4840411;29;20038;-59
2021/08/26 12:53:47;;;;;;;6.15;4.28;;;24.70;63.20;;;;;;4840478;29;20094;-60
2021/08/26 12:56:19;;;;;;;5.82;4.13;;;24.70;63.20;;;;;;4835759;29;20516;-60
2021/08/26 12:58:53;;;;;;;;;;;24.60;63.20;;;;;;4837410;29;20049;-59
2021/08/26 13:01:23;;;;;;;6.22;3.88;;;24.50;63.60;;;;;;4843410;29;20018;-60
2021/08/26 13:03:56;;;;;;;6.40;4.03;;;24.40;63.20;;;;;;4843425;29;20073;-60
2021/08/26 13:06:32;;;;;;;6.78;4.50;;;24.30;63.40;;;;;;4843599;29;20022;-60
2021/08/26 13:08:58;;;;;;;6.68;4.40;;;24.20;63.60;;;;;;4843274;29;20034;-60
2021/08/26 13:11:24;;;;;;;5.72;3.78;;;24.10;63.80;;;;;;4843245;29;20094;-60
2021/08/26 13:13:53;;;;;;;6.00;4.07;;;24.10;64.00;;;;;;4846907;29;20030;-60
2021/08/26 13:16:19;;;;;;;6.32;4.25;;;24.10;64.00;;;;;;4843059;29;20065;-60
2021/08/26 13:18:45;;;;;;;5.68;3.88;;;24.00;63.80;;;;;;4842529;29;20100;-59
2021/08/26 13:21:11;;;;;;;5.50;3.85;;;24.00;63.80;;;;;;4843064;29;20516;-60
2021/08/26 13:23:37;;;;;;;5.30;3.55;;;24.00;63.90;;;;;;4848756;29;20053;-60
2021/08/26 13:26:04;;;;;;;5.25;3.78;;;24.00;63.80;;;;;;4850182;29;20546;-60
2021/08/26 13:28:30;;;;;;;5.82;3.85;;;24.00;63.50;;;;;;4843128;29;20034;-61
2021/08/26 13:30:55;;;;;;;5.18;3.53;;;23.90;63.40;;;;;;4842740;29;20053;-60
2021/08/26 13:33:22;;;;;;;5.97;3.70;;;23.90;63.50;;;;;;4828396;29;20094;-60
2021/08/26 13:35:48;;;;;;;5.03;3.40;;;23.90;64.10;;;;;;4852080;29;20082;-60
2021/08/26 13:38:14;;;;;;;5.38;3.40;;;23.90;64.10;;;;;;4842261;29;20034;-61
2021/08/26 13:40:40;;;;;;;5.20;3.50;;;23.90;63.20;;;;;;4842381;29;20158;-59
2021/08/26 13:43:05;;;;;;;5.00;3.20;;;24.00;63.20;;;;;;4843342;29;20034;-60
2021/08/26 13:45:31;;;;;;;5.10;3.42;;;24.00;63.10;;;;;;4849661;29;20087;-60
2021/08/26 13:47:57;;;;;;;4.82;3.25;;;24.10;63.10;;;;;;4847403;29;20565;-60
2021/08/26 13:50:23;;;;;;;5.53;3.17;;;24.10;62.90;;;;;;4842367;29;20030;-59
2021/08/26 13:52:49;;;;;;;5.40;3.70;;;24.20;62.70;;;;;;4842442;29;20038;-59
2021/08/26 13:55:14;;;;;;;5.00;3.22;;;24.20;62.50;;;;;;4842410;29;20034;-59
2021/08/26 13:57:40;;;;;;;4.95;3.40;;;24.20;62.40;;;;;;4827714;29;20082;-60
2021/08/26 14:00:07;;;;;;;5.32;3.92;;;24.10;62.20;;;;;;4842372;29;20078;-60
2021/08/26 14:02:32;;;;;;;4.85;3.08;;;24.10;62.00;;;;;;4842075;29;20037;-60
2021/08/26 14:04:58;;;;;;;4.60;3.05;;;24.00;61.90;;;;;;4842348;29;20030;-59
2021/08/26 14:07:24;;;;;;;4.90;3.30;;;23.90;61.90;;;;;;4842240;29;20026;-59
2021/08/26 14:09:49;;;;;;;5.65;3.38;;;23.90;62.00;;;;;;4825403;29;20038;-59
2021/08/26 14:12:15;;;;;;;5.10;3.22;;;23.80;62.00;;;;;;4842068;29;20033;-58
2021/08/26 14:14:41;;;;;;;5.15;3.20;;;23.80;62.00;;;;;;4841951;29;20034;-61
2021/08/26 14:17:06;;;;;;;5.55;3.17;;;23.70;62.00;;;;;;4841403;29;20623;-62
2021/08/26 14:19:32;;;;;;;5.18;3.38;;;23.60;62.10;;;;;;4842570;29;20034;-61
2021/08/26 14:21:58;;;;;;;4.70;2.97;;;23.50;62.10;;;;;;4841878;29;20034;-60
2021/08/26 14:24:23;;;;;;;5.88;3.53;;;23.40;62.30;;;;;;4825110;29;20512;-61
2021/08/26 14:26:49;;;;;;;5.07;3.03;;;23.30;62.40;;;;;;4823263;29;20037;-61
2021/08/26 14:29:15;;;;;;;5.28;3.38;;;23.20;62.50;;;;;;4822824;29;20031;-61
2021/08/26 14:31:40;;;;;;;5.03;3.38;;;23.10;62.60;;;;;;4823312;29;20118;-61
2021/08/26 14:34:06;;;;;;;5.07;3.33;;;23.00;62.70;;;;;;4823742;29;20030;-60
2021/08/26 14:36:31;;;;;;;5.47;3.70;;;23.00;62.90;;;;;;4823624;29;20026;-61
2021/08/26 14:38:57;;;;;;;5.53;3.50;;;22.90;63.20;;;;;;4823851;29;20030;-61
2021/08/26 14:41:23;;;;;;;5.38;3.60;;;22.70;63.40;;;;;;4823740;29;20035;-60
2021/08/26 14:43:48;;;;;;;5.53;3.40;;;22.60;63.60;;;;;;4823802;29;20164;-60
2021/08/26 14:46:14;;;;;;;4.70;3.08;;;22.60;63.70;;;;;;4823596;29;20098;-60
2021/08/26 14:48:40;;;;;;;4.97;3.42;;;22.50;63.90;;;;;;4823517;29;20027;-60
2021/08/26 14:51:06;;;;;;;4.93;3.28;;;22.50;64.10;;;;;;4823505;29;20063;-60
2021/08/26 14:53:31;;;;;;;5.03;3.28;;;22.50;64.30;;;;;;4823542;29;20109;-61
2021/08/26 14:55:57;;;;;;;5.30;3.63;;;22.40;64.40;;;;;;4823499;29;20053;-60
2021/08/26 14:58:22;;;;;;;5.40;3.70;;;22.40;64.60;;;;;;4823514;29;20058;-60
2021/08/26 15:00:48;;;;;;;5.97;4.30;;;22.30;64.90;;;;;;4823419;29;20033;-60
2021/08/26 15:03:14;;;;;;;5.90;3.92;;;22.20;65.10;;;;;;4822222;29;20041;-60
2021/08/26 15:05:40;;;;;;;6.07;3.85;;;22.20;65.30;;;;;;4823537;29;20099;-60
2021/08/26 15:08:06;;;;;;;5.75;3.75;;;22.10;65.50;;;;;;4823283;29;20023;-60
2021/08/26 15:10:31;;;;;;;6.38;4.30;;;22.10;65.80;;;;;;4823501;29;20111;-60
2021/08/26 15:12:57;;;;;;;5.82;3.88;;;22.00;66.00;;;;;;4829106;29;20045;-61
2021/08/26 15:15:23;;;;;;;6.20;4.40;;;22.00;66.20;;;;;;4841415;29;20022;-59
2021/08/26 15:17:50;;;;;;;6.75;4.35;;;21.90;66.20;;;;;;4841094;29;20054;-61
2021/08/26 15:20:16;;;;;;;6.60;4.85;;;21.90;66.40;;;;;;4840579;29;20030;-60
2021/08/26 15:22:43;;;;;;;6.00;4.40;;;21.90;66.60;;;;;;4841179;29;20048;-59
2021/08/26 15:25:09;;;;;;;6.40;4.95;;;21.80;66.70;;;;;;4841336;29;20382;-59
2021/08/26 15:27:35;;;;;;;6.40;4.97;;;21.80;66.90;;;;;;4841302;29;20034;-60
2021/08/26 15:30:03;;;;;;;6.38;4.80;;;21.70;66.90;;;;;;4841303;29;20028;-60
2021/08/26 15:32:31;;;;;;;6.90;5.15;;;21.70;67.10;;;;;;4841086;29;20026;-60
2021/08/26 15:34:56;;;;;;;7.13;4.93;;;21.70;67.30;;;;;;4840957;29;20034;-62
2021/08/26 15:37:23;;;;;;;6.28;4.70;;;21.60;67.40;;;;;;4841144;29;20026;-60
2021/08/26 15:39:48;;;;;;;6.25;4.43;;;21.50;67.60;;;;;;4841217;29;20026;-60
2021/08/26 15:42:14;;;;;;;6.35;4.57;;;21.50;67.70;;;;;;4840954;29;20090;-61
2021/08/26 15:44:40;;;;;;;7.05;4.97;;;21.50;67.90;;;;;;4824751;29;20029;-60
2021/08/26 15:47:05;;;;;;;6.28;4.57;;;21.50;68.00;;;;;;4841233;29;20033;-60
2021/08/26 15:49:37;;;;;;;6.30;4.63;;;21.50;68.00;;;;;;4840482;29;20504;-60
2021/08/26 15:52:12;;;;;;;7.03;4.43;;;21.40;68.10;;;;;;4840947;29;20562;-60
2021/08/26 15:54:53;;;;;;;6.38;4.22;;;21.40;68.30;;;;;;4840954;29;20029;-62
2021/08/26 16:00:10;;;;;;;5.88;3.97;;;21.40;68.50;;;;;;4840555;29;20747;-60
2021/08/26 16:02:37;;;;;;;5.72;4.07;;;21.40;68.60;;;;;;4832527;29;20459;-62
2021/08/26 16:05:04;;;;;;;6.93;5.32;;;21.40;68.60;;;;;;4840258;29;20076;-61
2021/08/26 16:07:29;;;;;;;7.55;5.07;;;21.30;68.90;;;;;;4840430;29;20030;-62
2021/08/26 16:09:55;;;;;;;7.38;5.88;;;21.20;69.10;;;;;;4840244;29;20033;-61
2021/08/26 16:12:21;;;;;;;8.00;5.85;;;21.00;69.60;;;;;;4842016;29;20030;-62
2021/08/26 16:14:47;;;;;;;7.47;5.60;;;20.80;70.10;;;;;;4858373;29;20029;-62
2021/08/26 16:17:13;;;;;;;6.65;5.05;;;20.70;70.40;;;;;;4858557;29;20057;-61
2021/08/26 16:19:39;;;;;;;7.45;5.65;;;20.60;70.90;;;;;;4858810;29;20037;-61
2021/08/26 16:22:05;;;;;;;9.25;6.68;;;20.50;71.10;;;;;;4858754;29;20362;-61
2021/08/26 16:24:31;;;;;;;8.00;5.78;;;20.40;72.00;;;;;;4858774;29;20028;-61
2021/08/26 16:26:57;;;;;;;8.05;5.60;;;20.30;72.00;;;;;;4858852;29;20545;-62
2021/08/26 16:29:23;;;;;;;6.97;4.95;;;20.20;72.20;;;;;;4858136;29;20074;-62
2021/08/26 16:31:48;;;;;;;7.30;4.90;;;20.10;72.30;;;;;;4862441;29;20044;-62
2021/08/26 16:34:14;;;;;;;7.38;5.30;;;20.10;72.50;;;;;;4862683;29;20044;-62
2021/08/26 16:36:40;;;;;;;8.10;6.60;;;20.00;72.80;;;;;;4862314;29;20448;-62
2021/08/26 16:39:06;;;;;;;8.02;6.22;;;19.90;73.80;;;;;;4862627;29;20041;-62
2021/08/26 16:41:36;;;;;;;8.10;6.05;;;19.80;74.00;;;;;;4862298;29;20361;-62
2021/08/26 16:44:03;;;;;;;7.85;6.00;;;19.70;74.10;;;;;;4862333;29;20030;-62
2021/08/26 16:46:29;;;;;;;7.95;6.25;;;19.60;74.30;;;;;;4862414;29;20417;-62
2021/08/26 16:48:55;;;;;;;8.27;5.97;;;19.50;74.40;;;;;;4862282;29;20072;-60
2021/08/26 16:51:20;;;;;;;6.78;4.88;;;19.40;74.70;;;;;;4862351;29;20057;-61
2021/08/26 16:53:46;;;;;;;6.60;4.85;;;19.40;74.50;;;;;;4862154;29;20049;-61
2021/08/26 16:56:13;;;;;;;6.72;4.53;;;19.30;74.60;;;;;;4862364;29;20048;-61
2021/08/26 16:58:40;;;;;;;6.38;4.60;;;19.30;74.70;;;;;;4862572;29;20038;-63
2021/08/26 17:01:06;;;;;;;6.60;4.75;;;19.20;74.70;;;;;;4862262;29;20093;-61
2021/08/26 17:03:32;;;;;;;6.68;4.93;;;19.20;74.90;;;;;;4862263;29;20112;-61
2021/08/26 17:05:58;;;;;;;6.45;4.70;;;19.10;75.10;;;;;;4862043;29;20057;-61
2021/08/26 17:08:23;;;;;;;6.35;4.47;;;19.10;75.10;;;;;;4845289;29;20034;-62
2021/08/26 17:10:49;;;;;;;6.53;4.50;;;19.00;75.10;;;;;;4861911;29;20037;-62
2021/08/26 17:13:15;;;;;;;6.28;4.38;;;19.00;75.30;;;;;;4853708;29;20393;-62
2021/08/26 17:15:40;;;;;;;6.93;4.90;;;19.00;75.50;;;;;;4843168;29;20391;-60
2021/08/26 17:18:06;;;;;;;6.63;4.68;;;19.00;75.60;;;;;;4826814;29;20058;-61
2021/08/26 17:20:32;;;;;;;6.80;4.95;;;18.90;75.70;;;;;;4843315;29;20367;-61
2021/08/26 17:22:57;;;;;;;6.22;4.30;;;18.90;75.80;;;;;;4843247;29;20210;-61
2021/08/26 17:25:23;;;;;;;7.90;5.00;;;18.90;75.90;;;;;;4843147;29;20394;-62
2021/08/26 17:27:50;;;;;;;6.47;4.43;;;18.90;75.90;;;;;;4843248;29;20083;-62
2021/08/26 17:30:17;;;;;;;7.05;4.78;;;18.90;76.10;;;;;;4826668;29;20043;-62
2021/08/26 17:32:42;;;;;;;6.85;4.80;;;18.80;76.20;;;;;;4843025;29;20025;-62